Time;durP1;ratioP1;P1;durP2;ratioP2;P2;SDS_P1;SDS_P2;PMS_P1;PMS_P2;Temp;Humidity;BMP_temperature;BMP_pressure;BME280_temperature;BME280_humidity;BME280_pressure;Samples;Min_cycle;Max_cycle;Signal;HPM_P1;HPM_P2
2021/09/22 00:00:18;;;;;;;22.17;4.63;;;;;;;14.00;84.66;102103.78;5094005;28;20028;-74
2021/09/22 00:02:43;;;;;;;19.80;3.92;;;;;;;13.99;84.67;102108.44;5095526;28;20016;-74
2021/09/22 00:05:09;;;;;;;19.77;4.10;;;;;;;13.97;84.70;102105.13;5081063;28;20027;-74
2021/09/22 00:07:35;;;;;;;21.10;4.75;;;;;;;13.97;84.68;102110.59;5068242;28;20052;-74
2021/09/22 00:10:00;;;;;;;26.55;4.47;;;;;;;13.97;84.65;102107.88;5077265;28;20443;-74
2021/09/22 00:12:26;;;;;;;15.90;3.47;;;;;;;13.97;84.81;102109.78;5087329;28;20454;-74
2021/09/22 00:14:51;;;;;;;22.10;4.80;;;;;;;13.97;84.83;102112.53;5074634;28;20482;-73
2021/09/22 00:17:16;;;;;;;21.42;4.70;;;;;;;13.93;84.86;102103.16;5077209;28;20035;-73
2021/09/22 00:19:42;;;;;;;22.23;4.00;;;;;;;13.90;84.98;102103.69;5089538;28;20024;-73
2021/09/22 00:22:07;;;;;;;18.80;3.67;;;;;;;13.86;84.94;102097.94;5093383;28;20039;-74
2021/09/22 00:24:33;;;;;;;21.77;5.25;;;;;;;13.83;84.98;102098.47;5095096;28;20043;-73
2021/09/22 00:26:58;;;;;;;23.42;4.53;;;;;;;13.80;84.86;102089.91;5075252;28;20024;-73
2021/09/22 00:29:25;;;;;;;17.88;4.13;;;;;;;13.77;85.01;102094.81;5074613;28;20390;-73
2021/09/22 00:31:50;;;;;;;25.67;4.43;;;;;;;13.75;84.98;102091.53;5078936;28;20141;-73
2021/09/22 00:34:16;;;;;;;21.88;4.15;;;;;;;13.74;85.16;102084.38;5089699;28;20152;-73
2021/09/22 00:36:42;;;;;;;22.60;3.85;;;;;;;13.72;85.17;102086.59;5078849;28;20024;-74
2021/09/22 00:39:08;;;;;;;20.10;4.43;;;;;;;13.69;85.21;102087.09;5073127;28;20025;-74
2021/09/22 00:41:33;;;;;;;20.35;4.68;;;;;;;13.68;85.11;102095.59;5078304;28;20521;-73
2021/09/22 00:43:59;;;;;;;20.25;5.45;;;;;;;13.65;85.21;102102.41;5087983;28;20387;-74
2021/09/22 00:46:24;;;;;;;18.42;4.65;;;;;;;13.68;85.33;102095.59;5092049;28;20486;-74
2021/09/22 00:48:49;;;;;;;21.42;4.10;;;;;;;13.68;85.16;102090.94;5094567;28;20035;-73
2021/09/22 00:51:15;;;;;;;22.95;4.35;;;;;;;13.67;85.32;102089.28;5082024;28;20047;-73
2021/09/22 00:53:40;;;;;;;23.25;4.65;;;;;;;13.69;85.38;102092.56;5073286;28;20035;-74
2021/09/22 00:56:06;;;;;;;22.17;4.00;;;;;;;13.68;85.27;102085.44;5085601;28;20389;-74
2021/09/22 00:58:31;;;;;;;23.85;4.45;;;;;;;13.66;85.43;102090.34;5094416;28;20028;-73
2021/09/22 01:00:57;;;;;;;22.05;4.90;;;;;;;13.62;85.20;102094.72;5084801;28;20021;-74
2021/09/22 01:03:23;;;;;;;19.63;3.55;;;;;;;13.60;85.41;102094.16;5074748;28;20125;-73
2021/09/22 01:05:49;;;;;;;14.82;3.80;;;;;;;13.61;85.31;102087.56;5090136;28;20032;-74
2021/09/22 01:08:15;;;;;;;24.13;4.32;;;;;;;13.63;85.50;102093.63;5076035;28;20063;-74
2021/09/22 01:10:41;;;;;;;22.00;4.57;;;;;;;13.64;85.65;102097.19;5086134;28;20052;-74
2021/09/22 01:13:06;;;;;;;20.00;5.00;;;;;;;13.66;85.58;102108.72;5073828;28;20028;-74
2021/09/22 01:15:38;;;;;;;21.27;4.18;;;;;;;13.63;85.55;102110.06;5076740;28;20044;-73
2021/09/22 01:18:03;;;;;;;20.55;4.47;;;;;;;13.66;85.67;102104.06;5081292;28;20044;-73
2021/09/22 01:20:30;;;;;;;19.20;4.50;;;;;;;13.69;85.70;102103.53;5072772;28;20036;-73
2021/09/22 01:22:59;;;;;;;19.80;3.92;;;;;;;13.72;85.93;102107.66;5083250;28;20027;-73
2021/09/22 01:25:25;;;;;;;19.35;3.90;;;;;;;13.77;85.63;102107.72;5062548;28;20062;-73
2021/09/22 01:27:54;;;;;;;17.80;4.07;;;;;;;13.76;85.66;102112.38;5092751;28;20039;-73
2021/09/22 01:30:19;;;;;;;24.92;3.83;;;;;;;13.77;85.74;102111.28;5092332;28;20035;-75
2021/09/22 01:33:05;;;;;;;21.50;4.18;;;;;;;13.82;85.76;102109.66;5069332;28;20095;-74
2021/09/22 01:35:38;;;;;;;23.73;4.15;;;;;;;13.91;85.69;102116.31;5086164;28;20050;-73
2021/09/22 01:38:05;;;;;;;21.60;4.95;;;;;;;13.99;85.73;102113.06;5073299;28;20517;-73
2021/09/22 01:40:30;;;;;;;23.10;5.13;;;;;;;14.06;85.78;102113.66;5084952;28;20492;-73
2021/09/22 01:42:56;;;;;;;24.35;3.75;;;;;;;14.11;85.73;102105.47;5093439;28;20074;-74
2021/09/22 01:45:21;;;;;;;16.40;3.75;;;;;;;14.17;85.62;102104.41;5082481;28;20146;-73
2021/09/22 01:47:46;;;;;;;16.27;4.57;;;;;;;14.20;85.65;102103.88;5093190;28;20077;-73
2021/09/22 01:50:18;;;;;;;20.50;4.25;;;;;;;14.19;85.67;102096.75;5092204;28;20085;-74
2021/09/22 01:52:44;;;;;;;20.13;4.43;;;;;;;14.20;85.66;102098.38;5088733;28;20028;-73
2021/09/22 01:55:09;;;;;;;19.83;4.50;;;;;;;14.23;85.51;102096.22;5088132;28;20028;-73
2021/09/22 01:57:35;;;;;;;20.52;4.75;;;;;;;14.23;85.49;102090.72;5093241;28;20020;-73
2021/09/22 02:00:00;;;;;;;25.77;4.38;;;;;;;14.24;85.45;102097.84;5091872;28;20036;-74
2021/09/22 02:02:26;;;;;;;24.35;5.13;;;;;;;14.23;85.44;102093.47;5072766;28;20028;-73
2021/09/22 02:04:51;;;;;;;21.42;4.38;;;;;;;14.24;85.32;102093.22;5071564;28;20024;-73
2021/09/22 02:07:17;;;;;;;26.00;5.95;;;;;;;14.25;85.10;102099.53;5089857;28;20031;-74
2021/09/22 02:09:42;;;;;;;28.33;4.80;;;;;;;14.28;85.03;102098.97;5079173;28;20359;-74
2021/09/22 02:12:08;;;;;;;32.80;6.05;;;;;;;14.28;85.16;102101.72;5090245;28;20043;-74
2021/09/22 02:14:33;;;;;;;27.33;6.47;;;;;;;14.28;85.05;102109.97;5091831;28;20111;-74
2021/09/22 02:16:58;;;;;;;22.05;5.00;;;;;;;14.27;85.09;102102.81;5077888;28;20024;-73
2021/09/22 02:19:24;;;;;;;28.42;5.85;;;;;;;14.26;84.70;102103.91;5072810;28;20020;-73
2021/09/22 02:21:50;;;;;;;26.67;5.78;;;;;;;14.24;84.62;102095.09;5084211;28;20547;-74
2021/09/22 02:24:15;;;;;;;28.33;5.82;;;;;;;14.23;84.74;102094.28;5085138;28;20028;-75
2021/09/22 02:26:41;;;;;;;22.05;5.13;;;;;;;14.24;84.72;102090.47;5071317;28;20394;-74
2021/09/22 02:29:06;;;;;;;25.27;5.28;;;;;;;14.24;84.48;102092.38;5071270;28;20016;-74
2021/09/22 02:31:31;;;;;;;24.85;5.07;;;;;;;14.25;84.59;102091.28;5084591;28;20020;-74
2021/09/22 02:33:57;;;;;;;28.92;6.10;;;;;;;14.25;84.50;102094.03;5083317;28;20024;-73
2021/09/22 02:36:22;;;;;;;33.25;6.65;;;;;;;14.24;84.84;102086.88;5083346;28;20498;-74
2021/09/22 02:38:47;;;;;;;25.95;4.63;;;;;;;14.24;84.64;102086.88;5072506;28;20032;-74
2021/09/22 02:41:13;;;;;;;28.65;5.68;;;;;;;14.25;84.68;102083.88;5078130;28;20043;-74
2021/09/22 02:43:38;;;;;;;27.48;5.78;;;;;;;14.28;84.70;102090.75;5080432;28;20021;-74
2021/09/22 02:46:04;;;;;;;37.80;5.45;;;;;;;14.29;84.66;102078.69;5088030;28;20019;-74
2021/09/22 02:48:29;;;;;;;29.95;6.75;;;;;;;14.32;84.85;102072.66;5092698;28;20477;-74
2021/09/22 02:50:55;;;;;;;28.88;5.97;;;;;;;14.31;84.91;102073.75;5090263;28;20027;-74
2021/09/22 02:53:20;;;;;;;28.63;5.40;;;;;;;14.30;84.73;102078.44;5091497;28;20035;-74
2021/09/22 02:55:46;;;;;;;34.65;5.15;;;;;;;14.28;84.82;102074.28;5083564;28;20028;-74
2021/09/22 02:58:11;;;;;;;31.58;6.47;;;;;;;14.24;85.05;102071.28;5092418;28;20020;-74
2021/09/22 03:00:36;;;;;;;31.15;6.03;;;;;;;14.21;84.90;102067.16;5086192;28;20501;-73
2021/09/22 03:03:02;;;;;;;28.05;5.72;;;;;;;14.18;85.17;102066.84;5079764;28;20385;-74
2021/09/22 03:05:27;;;;;;;35.95;6.57;;;;;;;14.15;85.09;102062.69;5072490;28;20024;-73
2021/09/22 03:07:53;;;;;;;31.52;6.57;;;;;;;14.13;85.08;102059.44;5082886;28;20024;-74
2021/09/22 03:10:21;;;;;;;33.38;5.75;;;;;;;14.11;85.33;102066.25;5088567;28;20528;-74
2021/09/22 03:12:47;;;;;;;40.42;7.90;;;;;;;14.11;85.37;102061.59;5071230;28;20480;-74
2021/09/22 03:15:12;;;;;;;29.10;5.63;;;;;;;14.12;85.18;102063.25;5070800;28;20155;-74
2021/09/22 03:17:38;;;;;;;34.70;6.93;;;;;;;14.12;85.55;102057.75;5071782;28;20032;-73
2021/09/22 03:20:04;;;;;;;41.47;7.70;;;;;;;14.12;85.37;102057.75;5071989;28;20020;-74
2021/09/22 03:22:29;;;;;;;35.15;5.95;;;;;;;14.13;85.50;102067.66;5086395;28;20028;-74
2021/09/22 03:24:55;;;;;;;33.97;6.65;;;;;;;14.14;85.57;102083.00;5091081;28;20028;-74
2021/09/22 03:27:20;;;;;;;40.63;8.32;;;;;;;14.14;85.42;102077.53;5089813;28;20020;-74
2021/09/22 03:29:45;;;;;;;40.00;7.40;;;;;;;14.16;85.52;102069.03;5096211;28;20027;-74
2021/09/22 03:32:11;;;;;;;32.25;8.40;;;;;;;14.14;85.56;102080.25;5081748;28;20024;-73
2021/09/22 03:34:36;;;;;;;38.65;8.65;;;;;;;14.13;85.57;102081.38;5085574;28;20031;-73
2021/09/22 03:37:02;;;;;;;34.42;7.05;;;;;;;14.11;85.65;102080.78;5094709;28;20038;-73
2021/09/22 03:39:27;;;;;;;40.45;8.38;;;;;;;14.09;85.71;102074.75;5095813;28;20024;-73
2021/09/22 03:41:53;;;;;;;30.80;7.22;;;;;;;14.10;85.82;102070.91;5082582;28;20398;-73
2021/09/22 03:44:18;;;;;;;47.13;8.18;;;;;;;14.13;85.84;102067.66;5075403;28;20073;-73
2021/09/22 03:46:43;;;;;;;40.65;6.78;;;;;;;14.15;85.83;102073.66;5081327;28;20096;-73
2021/09/22 03:49:09;;;;;;;40.08;7.97;;;;;;;14.16;85.61;102064.38;5095325;28;20032;-74
2021/09/22 03:51:34;;;;;;;38.80;7.05;;;;;;;14.17;86.24;102074.25;5093293;28;20039;-72
2021/09/22 03:54:00;;;;;;;44.88;8.65;;;;;;;14.21;86.09;102075.38;5095630;28;20024;-73
2021/09/22 03:56:25;;;;;;;34.97;7.15;;;;;;;14.24;86.03;102070.41;5090266;28;20382;-72
2021/09/22 03:58:52;;;;;;;39.22;7.38;;;;;;;14.24;85.97;102065.78;5074010;28;20020;-73
2021/09/22 04:01:18;;;;;;;44.28;7.70;;;;;;;14.25;86.07;102058.38;5073882;28;20527;-73
2021/09/22 04:03:44;;;;;;;49.00;7.78;;;;;;;14.23;86.02;102055.88;5087182;28;20466;-72
2021/09/22 04:06:09;;;;;;;41.55;8.18;;;;;;;14.20;86.00;102053.69;5085467;28;20035;-72
2021/09/22 04:08:35;;;;;;;35.53;7.20;;;;;;;14.20;85.85;102056.44;5095144;28;20031;-72
2021/09/22 04:11:00;;;;;;;43.38;8.18;;;;;;;14.17;85.96;102046.81;5093003;28;20035;-72
2021/09/22 04:13:25;;;;;;;40.30;6.68;;;;;;;14.17;85.98;102046.00;5095136;28;20020;-73
2021/09/22 04:15:51;;;;;;;38.55;7.93;;;;;;;14.17;86.18;102048.72;5086804;28;20043;-73
2021/09/22 04:18:16;;;;;;;34.22;7.90;;;;;;;14.17;86.07;102049.56;5073580;28;20037;-73
2021/09/22 04:20:42;;;;;;;37.28;7.78;;;;;;;14.17;86.08;102035.84;5073401;28;20107;-72
2021/09/22 04:23:07;;;;;;;44.78;6.28;;;;;;;14.16;86.05;102045.16;5090941;28;20378;-73
2021/09/22 04:25:33;;;;;;;42.42;6.90;;;;;;;14.14;86.04;102041.88;5059768;28;20035;-75
2021/09/22 04:27:58;;;;;;;36.33;8.25;;;;;;;14.13;86.10;102042.13;5090364;28;20031;-75
2021/09/22 04:30:23;;;;;;;42.25;7.78;;;;;;;14.12;86.08;102035.81;5075472;28;20374;-74
2021/09/22 04:32:49;;;;;;;41.10;8.32;;;;;;;14.12;86.03;102044.03;5093493;28;20480;-73
2021/09/22 04:35:14;;;;;;;52.45;8.50;;;;;;;14.11;86.12;102031.44;5093762;28;20489;-75
2021/09/22 04:37:40;;;;;;;38.75;7.35;;;;;;;14.11;85.79;102030.63;5079420;28;20032;-72
2021/09/22 04:40:07;;;;;;;32.67;5.95;;;;;;;14.09;86.13;102033.59;5074293;28;20023;-73
2021/09/22 04:42:33;;;;;;;51.67;8.45;;;;;;;14.10;86.20;102037.16;5085720;28;20489;-73
2021/09/22 04:44:58;;;;;;;44.05;8.20;;;;;;;14.10;86.32;102045.41;5094713;28;20031;-72
2021/09/22 04:47:24;;;;;;;44.35;8.77;;;;;;;14.09;86.22;102041.84;5086594;28;20020;-72
2021/09/22 04:49:49;;;;;;;41.55;7.95;;;;;;;14.11;86.38;102033.34;5076450;28;20062;-73
2021/09/22 04:52:14;;;;;;;36.45;8.40;;;;;;;14.12;86.17;102035.81;5083407;28;20025;-72
2021/09/22 04:54:40;;;;;;;46.28;7.90;;;;;;;14.12;86.09;102038.56;5074644;28;20021;-72
2021/09/22 04:57:05;;;;;;;41.05;7.00;;;;;;;14.12;86.31;102030.31;5074868;28;20024;-73
2021/09/22 04:59:31;;;;;;;37.60;8.35;;;;;;;14.14;86.01;102044.59;5063554;28;20032;-74
2021/09/22 05:01:56;;;;;;;38.85;8.50;;;;;;;14.17;86.08;102049.56;5071277;28;20020;-73
2021/09/22 05:04:21;;;;;;;33.35;7.95;;;;;;;14.17;86.11;102052.28;5090835;28;20024;-73
2021/09/22 05:06:47;;;;;;;41.25;7.30;;;;;;;14.17;86.07;102043.25;5088759;28;20473;-72
2021/09/22 05:09:12;;;;;;;43.85;8.43;;;;;;;14.17;85.97;102046.00;5074078;28;20020;-72
2021/09/22 05:11:40;;;;;;;39.50;6.45;;;;;;;14.18;85.83;102051.19;5076284;28;20342;-73
2021/09/22 05:14:05;;;;;;;35.25;7.22;;;;;;;14.17;85.87;102044.06;5094031;28;20069;-73
2021/09/22 05:16:31;;;;;;;31.63;6.95;;;;;;;14.16;85.80;102053.41;5091994;28;20023;-73
2021/09/22 05:18:56;;;;;;;28.73;6.15;;;;;;;14.16;85.85;102053.41;5092449;28;20016;-73
2021/09/22 05:21:21;;;;;;;37.90;7.03;;;;;;;14.18;85.96;102051.19;5081826;28;20461;-73
2021/09/22 05:23:47;;;;;;;34.45;6.35;;;;;;;14.18;85.79;102056.69;5077269;28;20016;-72
2021/09/22 05:26:12;;;;;;;40.13;7.43;;;;;;;14.23;85.72;102057.81;5073567;28;20024;-73
2021/09/22 05:28:38;;;;;;;41.10;7.22;;;;;;;14.24;85.89;102063.03;5072517;28;20024;-72
2021/09/22 05:31:03;;;;;;;37.78;7.18;;;;;;;14.25;85.58;102066.59;5085428;28;20020;-74
2021/09/22 05:33:28;;;;;;;27.17;7.15;;;;;;;14.25;85.80;102074.84;5073679;28;20025;-75
2021/09/22 05:35:54;;;;;;;34.15;7.25;;;;;;;14.25;85.78;102072.09;5072051;28;20035;-75
2021/09/22 05:38:19;;;;;;;30.30;6.90;;;;;;;14.23;85.57;102069.59;5072151;28;20028;-74
2021/09/22 05:40:45;;;;;;;26.42;5.63;;;;;;;14.25;85.73;102072.09;5072778;28;20036;-74
2021/09/22 05:43:10;;;;;;;35.75;7.10;;;;;;;14.31;85.59;102076.50;5086376;28;20043;-73
2021/09/22 05:45:35;;;;;;;35.80;7.70;;;;;;;14.36;85.54;102062.81;5061349;28;20025;-73
2021/09/22 05:48:01;;;;;;;32.88;8.13;;;;;;;14.35;85.59;102067.47;5073165;28;20020;-73
2021/09/22 05:50:27;;;;;;;35.40;6.63;;;;;;;14.33;85.60;102068.84;5072831;28;20033;-73
2021/09/22 05:52:52;;;;;;;29.73;6.40;;;;;;;14.28;85.39;102055.91;5075639;28;20024;-74
2021/09/22 05:55:17;;;;;;;42.67;7.50;;;;;;;14.24;85.37;102059.44;5065391;28;20020;-73
2021/09/22 05:57:43;;;;;;;36.10;7.13;;;;;;;14.21;85.68;102067.16;5082807;28;20028;-73
2021/09/22 06:00:09;;;;;;;42.38;8.43;;;;;;;14.19;85.60;102058.34;5089511;28;20032;-73
2021/09/22 06:02:34;;;;;;;41.38;7.63;;;;;;;14.17;85.69;102060.53;5072936;28;20076;-74
2021/09/22 06:05:00;;;;;;;44.70;7.82;;;;;;;14.16;85.69;102069.84;5091646;28;20505;-73
2021/09/22 06:07:25;;;;;;;39.90;6.78;;;;;;;14.15;86.05;102051.72;5092166;28;20026;-73
2021/09/22 06:09:51;;;;;;;30.55;7.18;;;;;;;14.18;86.12;102056.69;5093022;28;20027;-74
2021/09/22 06:12:17;;;;;;;42.40;8.02;;;;;;;14.25;85.97;102058.38;5090040;28;20016;-73
2021/09/22 06:14:43;;;;;;;36.33;6.57;;;;;;;14.27;85.96;102056.16;5091794;28;20020;-74
2021/09/22 06:17:08;;;;;;;32.60;6.85;;;;;;;14.28;85.96;102046.88;5087847;28;20032;-73
2021/09/22 06:19:33;;;;;;;34.40;7.15;;;;;;;14.27;86.04;102047.94;5072776;28;20024;-73
2021/09/22 06:21:59;;;;;;;38.15;7.47;;;;;;;14.30;85.96;102052.91;5073331;28;20477;-73
2021/09/22 06:24:24;;;;;;;42.17;7.38;;;;;;;14.32;86.00;102045.22;5072956;28;20488;-73
2021/09/22 06:26:50;;;;;;;34.67;6.07;;;;;;;14.41;85.92;102049.13;5072772;28;20031;-73
2021/09/22 06:29:15;;;;;;;30.40;6.70;;;;;;;14.51;86.02;102049.13;5078817;28;20473;-73
2021/09/22 06:31:41;;;;;;;32.03;6.68;;;;;;;14.60;85.60;102053.06;5090125;28;20079;-73
2021/09/22 06:34:06;;;;;;;41.17;7.03;;;;;;;14.68;85.64;102054.44;5090730;28;20016;-74
2021/09/22 06:36:32;;;;;;;35.67;6.85;;;;;;;14.75;85.39;102049.50;5092901;28;20020;-73
2021/09/22 06:38:57;;;;;;;41.80;7.03;;;;;;;14.79;85.45;102049.81;5088857;28;20038;-73
2021/09/22 06:41:27;;;;;;;37.80;5.97;;;;;;;14.83;85.08;102050.91;5092361;28;20044;-73
2021/09/22 06:43:53;;;;;;;37.42;7.05;;;;;;;14.84;85.20;102055.28;5090305;28;20023;-73
2021/09/22 06:46:18;;;;;;;40.75;7.57;;;;;;;14.85;85.16;102052.28;5092446;28;20024;-74
2021/09/22 06:48:44;;;;;;;27.15;6.50;;;;;;;14.94;85.20;102047.06;5078144;28;20032;-73
2021/09/22 06:51:11;;;;;;;36.00;7.32;;;;;;;15.05;84.85;102046.00;5090203;28;20012;-74
2021/09/22 06:53:37;;;;;;;32.15;6.40;;;;;;;15.14;84.97;102037.19;5075777;28;20024;-73
2021/09/22 06:56:03;;;;;;;28.55;6.22;;;;;;;15.19;84.77;102042.69;5084396;28;20024;-74
2021/09/22 06:58:29;;;;;;;28.73;8.27;;;;;;;15.20;84.78;102033.38;5082256;28;20032;-74
2021/09/22 07:00:54;;;;;;;37.00;6.90;;;;;;;15.19;84.59;102028.97;5064527;28;20033;-73
2021/09/22 07:03:20;;;;;;;36.42;7.40;;;;;;;15.18;84.87;102035.56;5092031;28;20032;-73
2021/09/22 07:05:45;;;;;;;36.17;5.90;;;;;;;15.07;84.55;102041.06;5096872;28;20377;-73
2021/09/22 07:08:11;;;;;;;31.45;7.53;;;;;;;15.00;84.75;102040.47;5095333;28;20030;-74
2021/09/22 07:10:37;;;;;;;41.35;6.32;;;;;;;14.97;84.91;102035.53;5081080;28;20110;-73
2021/09/22 07:13:03;;;;;;;35.60;6.35;;;;;;;14.96;85.03;102036.66;5093122;28;20032;-73
2021/09/22 07:15:28;;;;;;;32.53;7.03;;;;;;;14.95;85.19;102042.41;5081175;28;20054;-73
2021/09/22 07:17:54;;;;;;;37.78;6.68;;;;;;;14.96;85.41;102050.38;5092341;28;20024;-73
2021/09/22 07:20:19;;;;;;;41.33;7.15;;;;;;;15.01;85.64;102031.16;5079908;28;20381;-74
2021/09/22 07:22:45;;;;;;;36.75;7.72;;;;;;;15.08;85.32;102039.94;5081770;28;20069;-74
2021/09/22 07:25:10;;;;;;;45.55;7.90;;;;;;;15.07;85.38;102032.81;5096272;28;20036;-74
2021/09/22 07:27:36;;;;;;;24.20;6.45;;;;;;;15.03;85.22;102036.38;5085769;28;20024;-72
2021/09/22 07:30:01;;;;;;;37.53;5.95;;;;;;;15.03;84.90;102034.47;5077597;28;20024;-73
2021/09/22 07:32:27;;;;;;;35.17;7.15;;;;;;;15.05;85.34;102037.75;5092429;28;20039;-74
2021/09/22 07:34:52;;;;;;;32.33;6.78;;;;;;;15.14;85.31;102045.44;5086211;28;20054;-74
2021/09/22 07:37:18;;;;;;;25.42;6.63;;;;;;;15.17;85.35;102039.41;5076553;28;20042;-74
2021/09/22 07:39:44;;;;;;;27.15;7.80;;;;;;;15.16;84.70;102041.31;5095997;28;20020;-74
2021/09/22 07:42:12;;;;;;;31.40;6.47;;;;;;;15.20;85.02;102038.88;5095031;28;20038;-74
2021/09/22 07:44:41;;;;;;;31.70;5.95;;;;;;;15.21;84.78;102037.78;5089745;28;20032;-73
2021/09/22 07:47:07;;;;;;;32.67;6.55;;;;;;;15.23;84.79;102047.38;5086853;28;20393;-74
2021/09/22 07:49:33;;;;;;;35.47;6.85;;;;;;;15.24;84.89;102043.53;5088724;28;20024;-73
2021/09/22 07:51:59;;;;;;;30.67;6.13;;;;;;;15.29;84.92;102048.22;5086066;28;20082;-74
2021/09/22 07:54:25;;;;;;;29.70;5.45;;;;;;;15.35;84.71;102041.59;5077894;28;20024;-74
2021/09/22 07:56:50;;;;;;;34.45;7.32;;;;;;;15.35;84.58;102040.78;5083021;28;20034;-74
2021/09/22 07:59:16;;;;;;;34.72;6.70;;;;;;;15.41;84.61;102050.66;5092101;28;20028;-75
2021/09/22 08:01:41;;;;;;;31.52;6.50;;;;;;;15.47;84.59;102044.91;5095215;28;20032;-73
2021/09/22 08:04:07;;;;;;;30.25;6.70;;;;;;;15.46;84.41;102058.91;5094382;28;20349;-74
2021/09/22 08:06:32;;;;;;;38.65;8.48;;;;;;;15.46;84.45;102050.66;5080788;28;20527;-74
2021/09/22 08:08:58;;;;;;;21.98;6.18;;;;;;;15.55;84.54;102051.78;5087444;28;20465;-74
2021/09/22 08:11:23;;;;;;;31.92;6.35;;;;;;;15.61;84.35;102047.91;5094115;28;20020;-74
2021/09/22 08:13:48;;;;;;;33.28;6.88;;;;;;;15.60;83.97;102045.44;5085587;28;20013;-74
2021/09/22 08:16:14;;;;;;;32.97;7.05;;;;;;;15.57;84.16;102048.75;5085515;28;20024;-75
2021/09/22 08:18:45;;;;;;;34.63;6.47;;;;;;;15.53;84.11;102043.81;5092814;28;20038;-74
2021/09/22 08:21:11;;;;;;;33.10;5.72;;;;;;;15.46;84.01;102048.75;5094092;28;20035;-74
2021/09/22 08:23:36;;;;;;;30.05;7.47;;;;;;;15.39;84.16;102034.47;5085142;28;20386;-74
2021/09/22 08:26:01;;;;;;;35.10;5.97;;;;;;;15.39;84.12;102037.22;5093827;28;20035;-76
2021/09/22 08:28:27;;;;;;;27.88;5.97;;;;;;;15.38;83.74;102032.81;5084587;28;20032;-75
2021/09/22 08:30:52;;;;;;;26.85;5.03;;;;;;;15.36;83.99;102046.03;5092381;28;20050;-74
2021/09/22 08:33:18;;;;;;;27.38;5.75;;;;;;;15.40;84.02;102038.88;5086505;28;20477;-74
2021/09/22 08:35:43;;;;;;;38.20;6.35;;;;;;;15.45;83.78;102033.38;5094711;28;20031;-74
2021/09/22 08:38:08;;;;;;;35.47;6.35;;;;;;;15.51;83.74;102028.69;5088613;28;20027;-74
2021/09/22 08:40:34;;;;;;;39.97;7.00;;;;;;;15.53;83.51;102023.75;5087977;28;20048;-74
2021/09/22 08:42:59;;;;;;;29.20;5.85;;;;;;;15.60;83.51;102020.69;5093375;28;20020;-74
2021/09/22 08:45:25;;;;;;;34.17;6.65;;;;;;;15.63;83.33;102025.63;5093425;28;20028;-74
2021/09/22 08:47:50;;;;;;;24.48;5.88;;;;;;;15.66;82.91;102022.31;5090202;28;20039;-73
2021/09/22 08:50:17;;;;;;;21.80;5.53;;;;;;;15.70;82.79;102007.78;5073186;28;20043;-74
2021/09/22 08:52:44;;;;;;;27.10;5.18;;;;;;;15.75;82.08;102007.78;5073955;28;20454;-74
2021/09/22 08:55:10;;;;;;;22.23;5.57;;;;;;;15.86;81.59;102010.50;5093128;28;20070;-74
2021/09/22 08:57:35;;;;;;;26.77;5.40;;;;;;;15.90;81.09;102004.16;5085602;28;20036;-74
2021/09/22 09:00:01;;;;;;;27.10;5.57;;;;;;;15.91;81.00;102011.31;5091110;28;20031;-74
2021/09/22 09:02:26;;;;;;;33.67;6.55;;;;;;;15.94;80.85;102009.94;5092835;28;20024;-74
2021/09/22 09:05:12;;;;;;;23.67;5.28;;;;;;;15.97;81.17;102010.19;5058316;28;20028;-75
2021/09/22 09:08:00;;;;;;;22.60;4.80;;;;;;;16.00;81.06;102005.22;5092652;28;20027;-74
2021/09/22 09:10:31;;;;;;;25.88;5.57;;;;;;;16.01;81.06;102012.38;5072681;28;20028;-74
2021/09/22 09:12:59;;;;;;;30.98;5.10;;;;;;;16.00;80.64;102013.50;5080846;28;20026;-74
2021/09/22 09:15:29;;;;;;;28.67;6.03;;;;;;;15.97;80.70;101996.44;5073820;28;20022;-74
2021/09/22 09:17:59;;;;;;;25.00;4.30;;;;;;;16.03;80.60;102002.72;5075325;28;20028;-75
2021/09/22 09:20:25;;;;;;;21.90;5.57;;;;;;;16.03;80.71;101994.47;5092445;28;20024;-75
2021/09/22 09:22:54;;;;;;;29.13;5.82;;;;;;;16.06;80.97;101984.84;5091954;28;20161;-75
2021/09/22 09:25:24;;;;;;;22.02;5.55;;;;;;;16.09;80.92;101990.59;5077963;28;20040;-76
2021/09/22 09:27:50;;;;;;;25.48;5.28;;;;;;;16.13;80.82;101977.13;5092583;28;20032;-75
2021/09/22 09:30:17;;;;;;;26.58;6.68;;;;;;;16.13;80.85;101974.38;5073553;28;20034;-75
2021/09/22 09:32:42;;;;;;;31.05;6.40;;;;;;;16.09;80.58;101959.53;5073176;28;20024;-75
2021/09/22 09:35:12;;;;;;;26.20;5.25;;;;;;;16.08;80.68;101966.94;5091979;28;20039;-75
2021/09/22 09:37:41;;;;;;;28.48;6.80;;;;;;;16.07;80.63;101948.81;5057708;28;20016;-73
2021/09/22 09:40:24;;;;;;;32.95;6.40;;;;;;;16.07;80.71;101951.56;5084532;28;20107;-75
2021/09/22 09:43:07;;;;;;;28.52;5.53;;;;;;;16.08;80.73;101949.63;5092284;28;20039;-75
2021/09/22 09:45:40;;;;;;;26.52;5.38;;;;;;;16.03;80.73;101953.22;5073618;28;20032;-75
2021/09/22 09:48:12;;;;;;;;;;;;;;;16.03;80.96;101952.41;5075568;28;20696;-75
2021/09/22 09:50:39;;;;;;;27.60;6.05;;;;;;;16.08;81.18;101942.19;5093493;28;20399;-75
2021/09/22 09:53:05;;;;;;;26.63;6.47;;;;;;;16.16;81.03;101940.78;5088265;28;20016;-75
2021/09/22 09:55:33;;;;;;;27.60;6.10;;;;;;;16.26;81.01;101946.25;5089015;28;20043;-75
2021/09/22 09:57:58;;;;;;;26.02;5.35;;;;;;;16.25;80.73;101939.06;5091266;28;20063;-75
2021/09/22 10:00:39;;;;;;;27.80;6.78;;;;;;;16.29;80.67;101934.66;5093326;28;20386;-75
2021/09/22 10:03:15;;;;;;;26.60;5.55;;;;;;;16.28;80.66;101941.25;5091020;28;20050;-75
2021/09/22 10:05:40;;;;;;;31.55;6.57;;;;;;;16.32;80.66;101939.59;5073322;28;20024;-75
2021/09/22 10:08:06;;;;;;;24.77;5.95;;;;;;;16.26;80.48;101937.97;5073755;28;20047;-75
2021/09/22 10:10:32;;;;;;;28.67;7.45;;;;;;;16.20;80.42;101936.34;5074973;28;20032;-75
2021/09/22 10:12:57;;;;;;;36.50;7.00;;;;;;;16.17;80.66;101936.91;5063613;28;20055;-75
2021/09/22 10:15:23;;;;;;;17.65;5.60;;;;;;;16.23;80.68;101932.22;5089211;28;20020;-75
2021/09/22 10:17:50;;;;;;;29.88;6.82;;;;;;;16.18;80.40;101933.06;5091709;28;20028;-73
2021/09/22 10:20:16;;;;;;;24.30;5.65;;;;;;;16.12;80.43;101923.19;5087544;28;20027;-74
2021/09/22 10:22:42;;;;;;;28.67;6.18;;;;;;;16.10;80.61;101917.16;5084121;28;20031;-74
2021/09/22 10:25:07;;;;;;;24.48;6.45;;;;;;;16.14;80.71;101923.72;5088866;28;20377;-75
2021/09/22 10:27:33;;;;;;;24.17;6.07;;;;;;;16.13;80.73;101922.09;5073933;28;20213;-75
2021/09/22 10:30:07;;;;;;;29.27;6.65;;;;;;;16.15;80.69;101917.97;5062556;28;20032;-74
2021/09/22 10:32:36;;;;;;;30.58;6.63;;;;;;;16.14;80.84;101912.72;5085011;28;20095;-74
2021/09/22 10:35:20;;;;;;;32.95;6.93;;;;;;;16.15;80.86;101909.69;5087037;28;20020;-74
2021/09/22 10:37:45;;;;;;;29.90;6.93;;;;;;;16.17;80.69;101914.91;5092354;28;20499;-74
2021/09/22 10:40:16;;;;;;;24.13;6.10;;;;;;;16.24;80.58;101909.91;5091898;28;20032;-75
2021/09/22 10:42:43;;;;;;;27.55;6.10;;;;;;;16.28;80.57;101910.97;5051120;28;20033;-75
2021/09/22 10:45:17;;;;;;;26.40;6.82;;;;;;;16.24;80.71;101909.91;5051120;28;20104;-75
2021/09/22 10:47:43;;;;;;;20.08;5.70;;;;;;;16.25;80.79;101903.28;5052440;28;20135;-75
2021/09/22 10:50:08;;;;;;;23.67;5.90;;;;;;;16.22;80.80;101897.56;5051026;28;20177;-75
2021/09/22 10:52:36;;;;;;;29.65;6.47;;;;;;;16.31;80.87;101904.09;5032527;28;20494;-75
2021/09/22 10:55:20;;;;;;;25.77;5.93;;;;;;;16.35;80.70;101900.50;5032570;28;20393;-75
2021/09/22 10:57:47;;;;;;;29.33;6.47;;;;;;;16.46;80.69;101901.25;5032545;28;20057;-74
2021/09/22 11:00:19;;;;;;;23.60;5.90;;;;;;;16.37;80.13;101908.47;5048101;28;20029;-75
2021/09/22 11:02:49;;;;;;;27.83;6.25;;;;;;;16.22;80.47;101903.88;5052571;28;20541;-75
2021/09/22 11:05:36;;;;;;;27.75;6.82;;;;;;;16.11;80.73;101907.78;5051108;28;20021;-76
2021/09/22 11:08:08;;;;;;;26.50;7.05;;;;;;;16.00;80.84;101908.97;5052166;28;20047;-75
2021/09/22 11:10:42;;;;;;;23.05;6.53;;;;;;;15.92;80.91;101908.44;5049762;28;20043;-74
2021/09/22 11:13:22;;;;;;;25.85;7.78;;;;;;;15.86;81.03;101917.81;5050919;28;20056;-74